createdAt,value
2019-02-03T00:00:33.085Z,41.03
2019-02-03T00:03:03.871Z,44.00
2019-02-03T00:05:35.047Z,39.18
2019-02-03T00:08:05.938Z,45.77
2019-02-03T00:10:36.774Z,38.43
2019-02-03T00:13:07.549Z,43.07
2019-02-03T00:15:38.324Z,44.07
2019-02-03T00:18:09.400Z,40.58
2019-02-03T00:20:40.174Z,42.47
2019-02-03T00:23:11.073Z,41.10
2019-02-03T00:25:41.833Z,40.80
2019-02-03T00:28:12.605Z,38.83
2019-02-03T00:30:43.376Z,38.53
2019-02-03T00:33:14.150Z,37.77
2019-02-03T00:35:44.914Z,36.83
2019-02-03T00:38:23.115Z,41.47
2019-02-03T00:40:48.374Z,38.10
2019-02-03T00:43:19.149Z,40.70
2019-02-03T00:45:49.920Z,38.27
2019-02-03T00:48:20.845Z,42.93
2019-02-03T00:50:51.693Z,41.53
2019-02-03T00:53:23.006Z,37.70
2019-02-03T00:55:53.899Z,40.83
2019-02-03T00:58:24.793Z,38.47
2019-02-03T01:00:55.572Z,39.63
2019-02-03T01:03:26.514Z,45.17
2019-02-03T01:05:57.626Z,38.15
2019-02-03T01:08:28.391Z,41.00
2019-02-03T01:10:59.148Z,36.47
2019-02-03T01:13:29.958Z,40.60
2019-02-03T01:16:00.847Z,45.13
2019-02-03T01:18:31.913Z,42.55
2019-02-03T01:21:02.674Z,41.23
2019-02-03T01:23:33.447Z,40.63
2019-02-03T01:26:04.217Z,41.07
2019-02-03T01:28:34.996Z,37.80
2019-02-03T01:31:06.065Z,37.10
2019-02-03T01:33:36.845Z,38.50
2019-02-03T01:36:07.601Z,38.13
2019-02-03T01:38:38.602Z,39.77
2019-02-03T01:41:09.356Z,40.43
2019-02-03T01:43:40.337Z,32.13
2019-02-03T01:46:11.195Z,33.37
2019-02-03T01:48:41.983Z,39.17
2019-02-03T01:51:12.741Z,38.20
2019-02-03T01:53:43.509Z,35.33
2019-02-03T01:56:14.288Z,36.47
2019-02-03T01:58:45.112Z,31.13
2019-02-03T02:01:16.307Z,35.00
2019-02-03T02:03:47.020Z,36.40
2019-02-03T02:06:17.794Z,37.00
2019-02-03T02:08:48.553Z,34.40
2019-02-03T02:11:19.332Z,37.67
2019-02-03T02:13:50.112Z,36.67
2019-02-03T02:16:20.880Z,38.97
2019-02-03T02:18:51.696Z,32.20
2019-02-03T02:21:22.636Z,41.07
2019-02-03T02:23:53.371Z,37.63
2019-02-03T02:26:24.147Z,36.43
2019-02-03T02:28:54.918Z,34.33
2019-02-03T02:31:25.695Z,37.90
2019-02-03T02:33:56.611Z,34.97
2019-02-03T02:36:27.351Z,35.97
2019-02-03T02:38:58.126Z,34.90
2019-02-03T02:41:28.913Z,38.17
2019-02-03T02:43:59.664Z,38.17
2019-02-03T02:46:30.435Z,32.43
2019-02-03T02:49:01.203Z,38.63
2019-02-03T02:51:31.988Z,34.13
2019-02-03T02:54:03.050Z,33.90
2019-02-03T02:56:33.860Z,33.30
2019-02-03T02:59:04.616Z,33.70
2019-02-03T03:01:35.504Z,35.57
2019-02-03T03:04:06.274Z,33.07
2019-02-03T03:06:37.056Z,39.07
2019-02-03T03:09:09.019Z,35.20
2019-02-03T03:11:39.800Z,32.73
2019-02-03T03:14:10.692Z,32.10
2019-02-03T03:16:41.446Z,39.50
2019-02-03T03:19:12.216Z,29.03
2019-02-03T03:21:42.998Z,29.20
2019-02-03T03:24:13.765Z,25.50
2019-02-03T03:26:44.562Z,27.40
2019-02-03T03:29:15.342Z,28.07
2019-02-03T03:31:46.115Z,30.13
2019-02-03T03:34:17.010Z,25.80
2019-02-03T03:36:47.798Z,27.03
2019-02-03T03:39:18.600Z,26.80
2019-02-03T03:41:49.342Z,26.03
2019-02-03T03:44:20.116Z,26.50
2019-02-03T03:46:51.349Z,25.88
2019-02-03T03:49:22.116Z,26.23
2019-02-03T03:51:52.886Z,30.43
2019-02-03T03:54:23.652Z,28.37
2019-02-03T03:56:54.454Z,27.43
2019-02-03T03:59:25.527Z,30.12
2019-02-03T04:01:56.586Z,31.07
2019-02-03T04:04:27.852Z,31.48
2019-02-03T04:06:58.882Z,28.47
2019-02-03T04:09:29.662Z,33.70
2019-02-03T04:12:00.725Z,28.60
2019-02-03T04:14:31.507Z,29.67
2019-02-03T04:17:02.739Z,30.10
2019-02-03T04:19:33.513Z,22.87
2019-02-03T04:22:04.373Z,31.73
2019-02-03T04:24:35.454Z,29.30
2019-02-03T04:27:06.212Z,24.30
2019-02-03T04:29:36.988Z,28.67
2019-02-03T04:32:07.755Z,26.47
2019-02-03T04:34:38.579Z,29.23
2019-02-03T04:37:09.557Z,23.47
2019-02-03T04:39:40.331Z,26.40
2019-02-03T04:42:11.394Z,27.97
2019-02-03T04:44:42.177Z,23.27
2019-02-03T04:47:12.971Z,23.43
2019-02-03T04:49:44.045Z,26.40
2019-02-03T04:52:14.821Z,24.53
2019-02-03T04:54:45.688Z,24.27
2019-02-03T04:57:16.575Z,23.13
2019-02-03T04:59:47.368Z,28.20
2019-02-03T05:02:18.511Z,23.73
2019-02-03T05:04:49.304Z,22.35
2019-02-03T05:07:20.082Z,20.70
2019-02-03T05:09:50.901Z,27.07
2019-02-03T05:12:21.657Z,22.70
2019-02-03T05:14:52.424Z,25.40
2019-02-03T05:17:23.185Z,20.83
2019-02-03T05:19:54.077Z,17.90
2019-02-03T05:22:24.900Z,18.87
2019-02-03T05:24:55.682Z,19.67
2019-02-03T05:27:26.453Z,25.30
2019-02-03T05:29:57.234Z,21.60
2019-02-03T05:32:28.013Z,19.03
2019-02-03T05:34:58.785Z,20.43
2019-02-03T05:37:29.550Z,21.43
2019-02-03T05:40:00.366Z,18.07
2019-02-03T05:42:31.098Z,19.37
2019-02-03T05:45:02.976Z,20.23
2019-02-03T05:47:33.740Z,20.82
2019-02-03T05:50:08.326Z,20.33
2019-02-03T05:52:39.188Z,21.65
2019-02-03T05:55:10.560Z,17.20
2019-02-03T05:57:41.325Z,20.80
2019-02-03T06:00:25.327Z,19.30
2019-02-03T06:02:56.185Z,17.25
2019-02-03T06:05:26.960Z,14.30
2019-02-03T06:07:57.740Z,14.40
2019-02-03T06:10:28.505Z,23.63
2019-02-03T06:12:59.681Z,14.25
2019-02-03T06:15:30.451Z,14.10
2019-02-03T06:18:01.211Z,13.63
2019-02-03T06:20:31.991Z,13.57
2019-02-03T06:23:02.865Z,13.67
2019-02-03T06:25:34.044Z,14.80
2019-02-03T06:28:04.804Z,17.10
2019-02-03T06:30:57.563Z,16.00
2019-02-03T06:33:28.331Z,14.45
2019-02-03T06:35:59.119Z,15.10
2019-02-03T06:38:29.902Z,18.07
2019-02-03T06:41:00.683Z,14.73
2019-02-03T06:43:31.444Z,12.40
2019-02-03T06:46:20.983Z,15.37
2019-02-03T06:48:53.640Z,18.00
2019-02-03T06:51:24.415Z,12.37
2019-02-03T06:53:56.236Z,14.13
2019-02-03T06:56:27.023Z,11.78
2019-02-03T06:58:57.811Z,14.23
2019-02-03T07:01:28.586Z,12.47
2019-02-03T07:03:59.358Z,15.43
2019-02-03T07:06:30.154Z,11.43
2019-02-03T07:09:00.969Z,12.60
2019-02-03T07:11:31.757Z,11.00
2019-02-03T07:14:02.627Z,11.50
2019-02-03T07:16:40.514Z,12.40
2019-02-03T07:19:06.066Z,12.50
2019-02-03T07:21:36.853Z,11.50
2019-02-03T07:24:07.615Z,11.07
2019-02-03T07:26:38.406Z,11.87
2019-02-03T07:29:09.180Z,10.40
2019-02-03T07:31:39.947Z,12.47
2019-02-03T07:34:10.703Z,12.43
2019-02-03T07:36:41.476Z,12.23
2019-02-03T07:39:12.260Z,14.60
2019-02-03T07:41:43.048Z,12.03
2019-02-03T07:44:13.808Z,13.00
2019-02-03T07:46:44.581Z,12.10
2019-02-03T07:49:15.345Z,12.70
2019-02-03T07:51:46.119Z,12.70
2019-02-03T07:54:16.916Z,12.33
2019-02-03T07:56:47.664Z,12.17
2019-02-03T07:59:18.449Z,12.20
2019-02-03T08:01:49.268Z,11.53
2019-02-03T08:04:20.027Z,9.03
2019-02-03T08:06:50.818Z,10.23
2019-02-03T08:09:21.604Z,13.87
2019-02-03T08:11:52.425Z,11.83
2019-02-03T08:14:23.197Z,10.70
2019-02-03T08:16:54.021Z,9.17
2019-02-03T08:19:24.830Z,16.57
2019-02-03T08:21:55.615Z,11.17
2019-02-03T08:24:26.499Z,13.23
2019-02-03T08:26:57.273Z,15.20
2019-02-03T08:29:28.038Z,16.30
2019-02-03T08:31:58.813Z,14.87
2019-02-03T08:34:29.634Z,13.03
2019-02-03T08:37:00.857Z,12.73
2019-02-03T08:39:31.613Z,10.90
2019-02-03T08:42:02.702Z,15.37
2019-02-03T08:44:33.495Z,22.70
2019-02-03T08:47:06.431Z,12.90
2019-02-03T08:49:37.388Z,13.70
2019-02-03T08:52:08.163Z,16.17
2019-02-03T08:54:56.771Z,14.20
2019-02-03T08:57:11.657Z,12.95
2019-02-03T08:59:42.474Z,13.40
2019-02-03T09:02:13.269Z,11.73
2019-02-03T09:04:44.086Z,16.10
2019-02-03T09:07:14.884Z,12.57
2019-02-03T09:09:45.677Z,12.73
2019-02-03T09:12:16.658Z,14.13
2019-02-03T09:14:47.500Z,11.40
2019-02-03T09:17:18.454Z,9.93
2019-02-03T09:19:49.314Z,10.63
2019-02-03T09:22:20.202Z,14.73
2019-02-03T09:24:51.105Z,12.10
2019-02-03T09:27:21.973Z,13.17
2019-02-03T09:29:52.818Z,12.23
2019-02-03T09:32:23.771Z,12.07
2019-02-03T09:34:54.550Z,12.17
2019-02-03T09:37:25.425Z,12.17
2019-02-03T09:39:56.268Z,13.63
2019-02-03T09:42:27.087Z,16.37
2019-02-03T09:44:57.949Z,11.30
2019-02-03T09:47:28.831Z,19.53
2019-02-03T09:49:59.729Z,15.07
2019-02-03T09:52:30.507Z,15.13
2019-02-03T09:55:01.306Z,19.30
2019-02-03T09:57:32.104Z,15.00
2019-02-03T10:00:09.652Z,15.77
2019-02-03T10:02:40.622Z,15.68
2019-02-03T10:05:11.725Z,14.33
2019-02-03T10:07:42.475Z,14.58
2019-02-03T10:10:30.683Z,10.97
2019-02-03T10:13:02.231Z,16.50
2019-02-03T10:15:33.025Z,11.93
2019-02-03T10:18:06.532Z,11.80
2019-02-03T10:20:37.372Z,12.58
2019-02-03T10:23:08.188Z,14.20
2019-02-03T10:25:39.056Z,12.40
2019-02-03T10:28:09.900Z,11.77
2019-02-03T10:30:40.709Z,12.20
2019-02-03T10:33:11.494Z,11.27
2019-02-03T10:35:42.294Z,13.10
2019-02-03T10:38:13.361Z,10.33
2019-02-03T10:40:44.147Z,9.03
2019-02-03T10:43:15.059Z,11.20
2019-02-03T10:45:45.845Z,10.93
2019-02-03T10:48:16.624Z,9.80
2019-02-03T10:50:47.520Z,11.30
2019-02-03T10:53:18.844Z,9.77
2019-02-03T10:55:49.944Z,13.88
2019-02-03T10:58:20.736Z,9.10
2019-02-03T11:00:51.519Z,8.43
2019-02-03T11:03:24.003Z,8.30
2019-02-03T11:05:54.878Z,10.33
2019-02-03T11:08:25.747Z,8.70
2019-02-03T11:10:56.532Z,11.50
2019-02-03T11:13:27.300Z,10.27
2019-02-03T11:15:58.481Z,8.18
2019-02-03T11:18:29.385Z,10.67
2019-02-03T11:21:00.258Z,8.27
2019-02-03T11:23:31.059Z,10.20
2019-02-03T11:26:01.954Z,11.20
2019-02-03T11:28:32.732Z,8.90
2019-02-03T11:31:04.008Z,9.85
2019-02-03T11:33:34.814Z,9.27
2019-02-03T11:36:05.752Z,11.10
2019-02-03T11:38:36.640Z,9.93
2019-02-03T11:41:07.527Z,9.03
2019-02-03T11:43:38.465Z,11.60
2019-02-03T11:46:09.400Z,11.20
2019-02-03T11:48:40.165Z,9.73
2019-02-03T11:51:11.024Z,10.27
2019-02-03T11:53:41.828Z,9.33
2019-02-03T11:56:12.628Z,9.53
2019-02-03T11:58:43.586Z,13.20
2019-02-03T12:01:16.635Z,9.80
2019-02-03T12:03:47.474Z,9.85
2019-02-03T12:06:18.244Z,11.30
2019-02-03T12:08:49.215Z,12.03
2019-02-03T12:11:20.342Z,11.23
2019-02-03T12:13:51.184Z,11.65
2019-02-03T12:16:21.962Z,14.00
2019-02-03T12:18:53.042Z,10.43
2019-02-03T12:21:24.123Z,13.20
2019-02-03T12:23:55.137Z,10.75
2019-02-03T12:26:26.049Z,10.30
2019-02-03T12:28:57.003Z,11.40
2019-02-03T12:31:28.073Z,10.33
2019-02-03T12:33:59.302Z,12.15
2019-02-03T12:36:30.695Z,12.23
2019-02-03T12:39:01.803Z,10.93
2019-02-03T12:41:32.585Z,11.08
2019-02-03T12:44:03.711Z,9.80
2019-02-03T12:46:34.570Z,11.13
2019-02-03T12:49:05.496Z,10.57
2019-02-03T12:51:36.613Z,10.33
2019-02-03T12:54:07.574Z,10.95
2019-02-03T12:56:38.734Z,14.15
2019-02-03T12:59:09.664Z,9.57
2019-02-03T13:01:40.576Z,14.03
2019-02-03T13:04:11.382Z,12.17
2019-02-03T13:06:42.494Z,12.20
2019-02-03T13:09:14.062Z,11.18
2019-02-03T13:11:44.875Z,10.28
2019-02-03T13:14:16.012Z,11.23
2019-02-03T13:16:46.939Z,9.38
2019-02-03T13:19:18.183Z,14.30
2019-02-03T13:21:49.228Z,17.02
2019-02-03T13:24:20.261Z,12.47
2019-02-03T13:26:51.061Z,11.08
2019-02-03T13:29:22.001Z,12.00
2019-02-03T13:31:53.219Z,14.27
2019-02-03T13:34:24.042Z,12.43
2019-02-03T13:36:54.943Z,11.97
2019-02-03T13:39:25.883Z,12.07
2019-02-03T13:41:57.109Z,14.00
2019-02-03T13:44:28.038Z,13.78
2019-02-03T13:46:58.943Z,10.77
2019-02-03T13:49:30.041Z,12.80
2019-02-03T13:52:00.976Z,12.73
2019-02-03T13:54:31.769Z,11.47
2019-02-03T13:57:03.282Z,13.55
2019-02-03T13:59:34.328Z,14.47
2019-02-03T14:02:05.257Z,13.32
2019-02-03T14:04:38.353Z,13.30
2019-02-03T14:07:09.452Z,12.90
2019-02-03T14:09:40.548Z,11.57
2019-02-03T14:12:11.612Z,12.80
2019-02-03T14:14:42.839Z,15.68
2019-02-03T14:17:13.929Z,13.13
2019-02-03T14:19:44.888Z,17.17
2019-02-03T14:22:15.821Z,11.20
2019-02-03T14:24:47.213Z,11.73
2019-02-03T14:27:18.568Z,11.03
2019-02-03T14:29:49.638Z,12.90
2019-02-03T14:32:21.119Z,13.08
2019-02-03T14:34:52.063Z,15.03
2019-02-03T14:37:23.016Z,12.83
2019-02-03T14:39:54.110Z,13.60
2019-02-03T14:42:25.336Z,15.32
2019-02-03T14:44:57.312Z,12.35
2019-02-03T14:47:28.914Z,12.45
2019-02-03T14:49:59.845Z,12.13
2019-02-03T14:52:30.758Z,9.53
2019-02-03T14:55:01.586Z,12.57
2019-02-03T14:57:32.690Z,12.93
2019-02-03T15:00:19.495Z,11.73
2019-02-03T15:02:50.211Z,11.75
2019-02-03T15:05:21.237Z,11.33
2019-02-03T15:07:52.280Z,11.12
2019-02-03T15:10:23.320Z,11.12
2019-02-03T15:12:54.396Z,9.68
2019-02-03T15:15:29.068Z,12.60
2019-02-03T15:18:00.601Z,11.15
2019-02-03T15:20:32.555Z,13.45
2019-02-03T15:23:04.504Z,14.65
2019-02-03T15:25:36.306Z,12.85
2019-02-03T15:28:10.529Z,14.20
2019-02-03T15:30:42.995Z,15.18
2019-02-03T15:33:13.937Z,10.38
2019-02-03T15:35:44.884Z,12.00
2019-02-03T15:38:15.642Z,14.20
2019-02-03T15:40:46.864Z,11.68
2019-02-03T15:43:24.989Z,13.87
2019-02-03T15:45:50.751Z,13.75
2019-02-03T15:48:21.658Z,13.50
2019-02-03T15:50:52.580Z,13.47
2019-02-03T15:53:23.668Z,12.47
2019-02-03T15:55:54.633Z,12.75
2019-02-03T15:58:25.575Z,9.50
2019-02-03T16:00:56.532Z,14.70
2019-02-03T16:03:27.470Z,14.50
2019-02-03T16:05:58.584Z,10.83
2019-02-03T16:08:29.667Z,11.48
2019-02-03T16:11:00.782Z,9.30
2019-02-03T16:13:37.278Z,13.30
2019-02-03T16:16:05.264Z,13.68
2019-02-03T16:18:36.622Z,11.20
2019-02-03T16:21:07.604Z,14.07
2019-02-03T16:23:38.839Z,13.88
2019-02-03T16:26:09.803Z,10.20
2019-02-03T16:28:40.937Z,11.70
2019-02-03T16:31:11.906Z,11.78
2019-02-03T16:33:42.826Z,13.60
2019-02-03T16:36:13.918Z,13.13
2019-02-03T16:38:45.548Z,12.30
2019-02-03T16:41:16.621Z,14.35
2019-02-03T16:43:49.289Z,11.80
2019-02-03T16:46:20.530Z,15.32
2019-02-03T16:48:51.469Z,14.40
2019-02-03T16:51:22.788Z,17.50
2019-02-03T16:53:54.169Z,12.82
2019-02-03T16:56:25.311Z,16.67
2019-02-03T16:58:56.638Z,12.30
2019-02-03T17:01:27.762Z,14.38
2019-02-03T17:03:58.826Z,20.25
2019-02-03T17:06:31.942Z,13.70
2019-02-03T17:09:06.680Z,13.25
2019-02-03T17:11:37.631Z,15.00
2019-02-03T17:14:08.975Z,16.80
2019-02-03T17:16:40.353Z,13.55
2019-02-03T17:19:11.836Z,16.73
2019-02-03T17:21:43.258Z,18.42
2019-02-03T17:24:14.324Z,17.85
2019-02-03T17:26:45.443Z,17.32
2019-02-03T17:29:16.224Z,14.03
2019-02-03T17:31:47.303Z,16.00
2019-02-03T17:34:18.393Z,15.10
2019-02-03T17:36:49.480Z,15.18
2019-02-03T17:39:20.794Z,18.67
2019-02-03T17:41:51.893Z,18.62
2019-02-03T17:44:23.094Z,14.58
2019-02-03T17:46:54.425Z,17.27
2019-02-03T17:49:25.563Z,21.35
2019-02-03T17:51:56.616Z,18.77
2019-02-03T17:54:27.709Z,19.35
2019-02-03T17:56:58.641Z,23.55
2019-02-03T17:59:29.790Z,22.47
2019-02-03T18:02:01.239Z,17.85
2019-02-03T18:04:32.551Z,22.73
2019-02-03T18:07:03.629Z,19.77
2019-02-03T18:09:35.035Z,23.95
2019-02-03T18:12:06.498Z,21.25
2019-02-03T18:14:38.242Z,25.68
2019-02-03T18:17:09.311Z,19.32
2019-02-03T18:19:40.290Z,21.70
2019-02-03T18:22:11.670Z,18.65
2019-02-03T18:24:43.130Z,24.47
2019-02-03T18:27:14.542Z,18.80
2019-02-03T18:29:46.233Z,17.32
2019-02-03T18:32:17.807Z,16.12
2019-02-03T18:34:49.016Z,16.27
2019-02-03T18:37:20.638Z,17.70
2019-02-03T18:39:52.065Z,18.40
2019-02-03T18:42:23.580Z,17.73
2019-02-03T18:44:55.108Z,20.50
2019-02-03T18:47:26.182Z,18.92
2019-02-03T18:49:57.945Z,17.70
2019-02-03T18:52:29.279Z,15.72
2019-02-03T18:55:00.532Z,20.82
2019-02-03T18:57:32.414Z,17.60
2019-02-03T19:00:07.462Z,18.25
2019-02-03T19:02:39.067Z,18.20
2019-02-03T19:05:13.414Z,15.30
2019-02-03T19:07:45.043Z,18.40
2019-02-03T19:10:19.078Z,15.03
2019-02-03T19:12:50.616Z,16.65
2019-02-03T19:15:24.543Z,14.68
2019-02-03T19:17:55.889Z,20.75
2019-02-03T19:20:33.602Z,12.00
2019-02-03T19:23:05.938Z,13.78
2019-02-03T19:25:37.603Z,14.28
2019-02-03T19:28:08.953Z,15.55
2019-02-03T19:30:40.634Z,15.68
2019-02-03T19:33:12.164Z,18.95
2019-02-03T19:35:43.815Z,12.80
2019-02-03T19:38:15.430Z,17.15
2019-02-03T19:40:48.565Z,15.10
2019-02-03T19:43:20.203Z,15.48
2019-02-03T19:45:53.102Z,16.07
2019-02-03T19:48:24.644Z,14.70
2019-02-03T19:50:56.415Z,16.35
2019-02-03T19:53:28.479Z,14.98
2019-02-03T19:56:00.042Z,12.80
2019-02-03T19:58:31.583Z,15.23
2019-02-03T20:01:03.123Z,14.78
2019-02-03T20:03:34.580Z,13.85
2019-02-03T20:06:06.288Z,15.68
2019-02-03T20:08:37.731Z,13.40
2019-02-03T20:11:09.094Z,13.30
2019-02-03T20:13:40.582Z,16.65
2019-02-03T20:16:12.162Z,11.35
2019-02-03T20:18:43.696Z,13.75
2019-02-03T20:21:15.373Z,13.98
2019-02-03T20:23:47.099Z,13.53
2019-02-03T20:26:18.760Z,10.98
2019-02-03T20:28:50.212Z,10.70
2019-02-03T20:31:21.900Z,11.48
2019-02-03T20:33:53.204Z,13.03
2019-02-03T20:36:24.697Z,11.05
2019-02-03T20:38:56.330Z,14.98
2019-02-03T20:41:27.967Z,13.03
2019-02-03T20:44:18.622Z,12.07
2019-02-03T20:46:49.830Z,12.53
2019-02-03T20:49:21.450Z,12.85
2019-02-03T20:51:53.419Z,11.70
2019-02-03T20:54:25.024Z,11.78
2019-02-03T20:56:56.248Z,16.20
2019-02-03T20:59:27.648Z,12.00
2019-02-03T21:01:59.462Z,13.68
2019-02-03T21:04:30.709Z,15.20
2019-02-03T21:07:01.798Z,12.00
2019-02-03T21:09:32.897Z,13.60
2019-02-03T21:12:05.875Z,16.40
2019-02-03T21:14:36.968Z,15.40
2019-02-03T21:17:08.108Z,12.00
2019-02-03T21:19:39.262Z,12.50
2019-02-03T21:22:10.054Z,11.03
2019-02-03T21:24:40.835Z,13.50
2019-02-03T21:27:11.633Z,13.80
2019-02-03T21:29:42.427Z,12.27
2019-02-03T21:32:13.213Z,16.27
2019-02-03T21:34:43.985Z,17.50
2019-02-03T21:37:14.759Z,13.27
2019-02-03T21:39:45.535Z,12.60
2019-02-03T21:42:16.339Z,16.53
2019-02-03T21:44:47.104Z,14.50
2019-02-03T21:47:17.885Z,17.80
2019-02-03T21:49:48.648Z,15.47
2019-02-03T21:52:19.421Z,12.70
2019-02-03T21:54:50.192Z,12.67
2019-02-03T21:57:20.988Z,19.83
2019-02-03T21:59:51.778Z,15.30
2019-02-03T22:02:22.556Z,14.27
2019-02-03T22:04:53.321Z,14.30
2019-02-03T22:07:24.446Z,14.87
2019-02-03T22:09:55.490Z,13.48
2019-02-03T22:12:26.287Z,15.60
2019-02-03T22:14:57.170Z,14.40
2019-02-03T22:17:27.972Z,13.00
2019-02-03T22:19:58.746Z,19.13
2019-02-03T22:22:29.635Z,15.03
2019-02-03T22:25:00.404Z,13.20
2019-02-03T22:27:31.189Z,14.70
2019-02-03T22:30:05.267Z,16.13
2019-02-03T22:32:36.039Z,14.70
2019-02-03T22:35:08.508Z,19.47
2019-02-03T22:37:39.270Z,17.67
2019-02-03T22:40:18.546Z,12.47
2019-02-03T22:42:49.399Z,14.93
2019-02-03T22:45:22.183Z,19.47
2019-02-03T22:47:52.960Z,14.93
2019-02-03T22:50:26.754Z,17.43
2019-02-03T22:52:57.826Z,15.03
2019-02-03T22:55:28.635Z,16.50
2019-02-03T22:57:59.428Z,15.17
2019-02-03T23:00:51.716Z,16.20
2019-02-03T23:03:35.427Z,15.45
2019-02-03T23:06:06.195Z,14.93
2019-02-03T23:08:36.980Z,16.37
2019-02-03T23:11:07.857Z,17.10
2019-02-03T23:13:38.704Z,12.90
2019-02-03T23:16:18.043Z,16.00
2019-02-03T23:18:42.158Z,17.30
2019-02-03T23:21:12.988Z,14.87
2019-02-03T23:23:43.786Z,11.90
2019-02-03T23:26:14.555Z,13.60
2019-02-03T23:28:45.321Z,16.10
2019-02-03T23:31:16.094Z,16.77
2019-02-03T23:33:47.020Z,13.70
2019-02-03T23:36:17.816Z,13.80
2019-02-03T23:38:48.587Z,12.80
2019-02-03T23:41:19.386Z,13.90
2019-02-03T23:43:50.156Z,13.37
2019-02-03T23:46:29.301Z,12.73
2019-02-03T23:48:53.611Z,13.40
2019-02-03T23:51:24.388Z,12.93
2019-02-03T23:53:55.301Z,12.67
2019-02-03T23:56:26.084Z,14.67
2019-02-03T23:58:56.889Z,11.00
